createdAt,value
2024-01-15T04:54:09.937Z,6.39
2024-01-15T04:56:36.889Z,6.69
2024-01-15T04:59:03.894Z,6.76
2024-01-15T05:01:30.983Z,6.72
2024-01-15T05:04:00.061Z,6.76
2024-01-15T05:06:27.301Z,6.60
2024-01-15T05:08:54.452Z,6.59
2024-01-15T05:11:21.403Z,6.79
2024-01-15T05:13:48.298Z,6.54
2024-01-15T05:16:15.290Z,6.53
2024-01-15T05:18:42.313Z,6.56
2024-01-15T05:21:09.302Z,6.84
2024-01-15T05:23:36.321Z,6.54
2024-01-15T05:26:03.216Z,6.50
2024-01-15T05:28:30.206Z,6.54
2024-01-15T05:30:57.297Z,6.47
2024-01-15T05:33:24.383Z,6.40
2024-01-15T05:35:51.421Z,5.98
2024-01-15T05:38:18.377Z,6.08
2024-01-15T05:40:45.355Z,6.03
2024-01-15T05:43:12.360Z,6.51
2024-01-15T05:45:39.330Z,6.37
2024-01-15T05:48:06.621Z,6.35
2024-01-15T05:50:33.851Z,6.51
2024-01-15T05:53:00.889Z,6.54
2024-01-15T05:55:27.821Z,6.75
2024-01-15T05:57:54.801Z,6.82
2024-01-15T06:00:21.953Z,6.88
2024-01-15T06:02:49.019Z,7.14
2024-01-15T06:05:15.949Z,7.27
2024-01-15T06:07:43.010Z,7.34
2024-01-15T06:10:09.892Z,6.95
2024-01-15T06:12:36.982Z,6.92
2024-01-15T06:15:03.981Z,6.65
2024-01-15T06:17:30.939Z,6.54
2024-01-15T06:19:57.913Z,6.67
2024-01-15T06:22:24.918Z,6.46
2024-01-15T06:24:51.880Z,6.62
2024-01-15T06:27:19.244Z,6.49
2024-01-15T06:29:48.985Z,6.60
2024-01-15T06:32:17.311Z,6.41
2024-01-15T06:34:44.431Z,6.50
2024-01-15T06:37:11.587Z,6.61
2024-01-15T06:39:38.609Z,6.86
2024-01-15T06:42:05.597Z,6.93
2024-01-15T06:44:32.385Z,6.66
2024-01-15T06:46:59.111Z,6.37
2024-01-15T06:49:26.032Z,6.77
2024-01-15T06:51:53.007Z,6.63
2024-01-15T06:54:19.766Z,6.91
2024-01-15T06:56:46.518Z,7.02
2024-01-15T06:59:14.679Z,7.26
2024-01-15T07:01:42.825Z,7.20
2024-01-15T07:04:09.601Z,6.85
